createdAt,value
2019-05-17T00:01:23.791Z,12.55
2019-05-17T00:03:59.303Z,12.57
2019-05-17T00:06:36.797Z,12.55
2019-05-17T00:09:11.152Z,12.58
2019-05-17T00:11:48.108Z,12.48
2019-05-17T00:14:23.110Z,12.51
2019-05-17T00:16:58.111Z,12.51
2019-05-17T00:19:33.446Z,12.61
2019-05-17T00:22:09.733Z,12.66
2019-05-17T00:24:44.827Z,12.62
2019-05-17T00:27:21.458Z,12.63
2019-05-17T00:29:57.116Z,12.71
2019-05-17T00:32:32.438Z,12.61
2019-05-17T00:35:07.754Z,12.57
2019-05-17T00:37:43.292Z,12.57
2019-05-17T00:40:19.051Z,12.65
2019-05-17T00:42:54.054Z,12.67
2019-05-17T00:45:29.074Z,12.75
2019-05-17T00:48:06.293Z,12.71
2019-05-17T00:50:40.966Z,12.79
2019-05-17T00:53:16.446Z,12.67
2019-05-17T00:55:51.663Z,12.58
2019-05-17T00:58:26.676Z,12.55
2019-05-17T01:01:02.725Z,12.60
2019-05-17T01:03:37.724Z,12.52
2019-05-17T01:06:12.839Z,12.58
2019-05-17T01:09:00.472Z,12.45
2019-05-17T01:11:26.939Z,12.46
2019-05-17T01:14:01.724Z,12.46
2019-05-17T01:16:36.894Z,12.49
2019-05-17T01:19:11.981Z,12.52
2019-05-17T01:21:47.568Z,12.40
2019-05-17T01:24:22.589Z,12.46
2019-05-17T01:26:57.583Z,12.57
2019-05-17T01:29:32.977Z,12.54
2019-05-17T01:32:08.165Z,12.55
2019-05-17T01:34:43.165Z,12.59
2019-05-17T01:37:18.173Z,12.57
2019-05-17T01:39:53.168Z,12.54
2019-05-17T01:42:28.458Z,12.52
2019-05-17T01:45:03.478Z,12.56
2019-05-17T01:47:38.550Z,12.53
2019-05-17T01:50:14.046Z,12.50
2019-05-17T01:52:49.116Z,12.50
2019-05-17T01:55:26.582Z,12.48
2019-05-17T01:58:01.628Z,12.48
2019-05-17T02:00:37.665Z,12.56
2019-05-17T02:03:13.123Z,12.49
2019-05-17T02:05:48.143Z,12.53
2019-05-17T02:08:23.131Z,12.57
2019-05-17T02:10:58.239Z,12.59
2019-05-17T02:13:33.506Z,12.50
2019-05-17T02:16:08.627Z,12.41
2019-05-17T02:18:43.600Z,12.43
2019-05-17T02:21:18.644Z,12.51
2019-05-17T02:23:53.630Z,12.46
2019-05-17T02:26:28.636Z,12.55
2019-05-17T02:29:03.813Z,12.55
2019-05-17T02:31:43.248Z,12.51
2019-05-17T02:34:17.208Z,12.44
2019-05-17T02:36:53.361Z,12.48
2019-05-17T02:39:28.816Z,12.48
2019-05-17T02:42:03.922Z,12.51
2019-05-17T02:44:39.065Z,12.57
2019-05-17T02:47:14.142Z,12.53
2019-05-17T02:49:49.254Z,12.56
2019-05-17T02:52:24.266Z,12.58
2019-05-17T02:54:59.268Z,12.60
2019-05-17T02:57:35.199Z,12.52
2019-05-17T03:00:13.328Z,12.57
2019-05-17T03:02:47.794Z,12.49
2019-05-17T03:05:23.356Z,12.59
2019-05-17T03:07:58.481Z,12.53
2019-05-17T03:10:34.117Z,12.56
2019-05-17T03:13:12.614Z,12.57
2019-05-17T03:15:46.084Z,12.58
2019-05-17T03:18:22.958Z,12.58
2019-05-17T03:20:57.808Z,12.59
2019-05-17T03:23:35.552Z,12.66
2019-05-17T03:26:13.193Z,12.62
2019-05-17T03:28:48.030Z,12.57
2019-05-17T03:31:26.280Z,12.58
2019-05-17T03:34:06.230Z,12.59
2019-05-17T03:36:39.254Z,12.62
2019-05-17T03:39:14.228Z,12.54
2019-05-17T03:41:49.236Z,12.59
2019-05-17T03:44:24.214Z,12.64
2019-05-17T03:47:02.166Z,12.76
2019-05-17T03:49:39.332Z,12.69
2019-05-17T03:52:13.691Z,12.64
2019-05-17T03:54:48.868Z,12.62
2019-05-17T03:57:24.275Z,12.59
2019-05-17T03:59:59.238Z,12.59
2019-05-17T04:02:35.323Z,12.58
2019-05-17T04:05:12.622Z,12.57
2019-05-17T04:07:48.011Z,12.55
2019-05-17T04:10:23.075Z,12.57
2019-05-17T04:12:58.254Z,12.50
2019-05-17T04:15:33.423Z,12.53
2019-05-17T04:18:08.962Z,12.60
2019-05-17T04:20:44.026Z,12.54
2019-05-17T04:23:19.008Z,12.66
2019-05-17T04:25:54.013Z,12.44
2019-05-17T04:28:33.586Z,12.61
2019-05-17T04:31:08.912Z,12.64
2019-05-17T04:33:44.046Z,12.61
2019-05-17T04:36:22.253Z,12.60
2019-05-17T04:41:49.274Z,12.64
2019-05-17T04:44:23.051Z,12.63
2019-05-17T04:46:57.454Z,12.63
2019-05-17T04:49:33.531Z,12.48
2019-05-17T04:52:13.728Z,12.53
2019-05-17T04:54:48.375Z,12.56
2019-05-17T04:57:24.181Z,12.55
2019-05-17T04:59:59.310Z,12.42
2019-05-17T05:02:34.449Z,12.51
2019-05-17T05:05:13.089Z,12.59
2019-05-17T05:07:46.384Z,12.64
2019-05-17T05:10:24.339Z,12.57
2019-05-17T05:12:59.404Z,12.65
2019-05-17T05:15:44.779Z,12.67
2019-05-17T05:18:22.198Z,12.69
2019-05-17T05:20:56.876Z,12.72
2019-05-17T05:23:31.998Z,12.67
2019-05-17T05:26:06.950Z,12.69
2019-05-17T05:28:42.110Z,12.75
2019-05-17T05:31:17.153Z,12.70
2019-05-17T05:33:52.342Z,12.64
2019-05-17T05:36:27.435Z,12.63
2019-05-17T05:39:02.613Z,12.62
2019-05-17T05:41:37.824Z,12.49
2019-05-17T05:44:12.940Z,12.46
2019-05-17T05:46:48.679Z,12.56
2019-05-17T05:49:23.675Z,12.52
2019-05-17T05:51:58.769Z,12.61
2019-05-17T05:54:35.063Z,12.70
2019-05-17T05:57:12.481Z,12.73
2019-05-17T05:59:47.009Z,12.73
2019-05-17T06:02:22.155Z,12.81
2019-05-17T06:04:57.915Z,12.87
2019-05-17T06:07:33.426Z,13.05
2019-05-17T06:10:14.163Z,13.03
2019-05-17T06:12:51.623Z,13.14
2019-05-17T06:15:25.954Z,13.12
2019-05-17T06:18:02.920Z,13.09
2019-05-17T06:20:37.772Z,13.17
2019-05-17T06:23:12.775Z,13.24
2019-05-17T06:25:47.786Z,13.30
2019-05-17T06:28:22.781Z,13.18
2019-05-17T06:30:57.868Z,13.16
2019-05-17T06:33:34.725Z,13.14
2019-05-17T06:36:10.096Z,13.15
2019-05-17T06:38:45.214Z,13.22
2019-05-17T06:41:21.522Z,13.29
2019-05-17T06:43:56.770Z,13.41
2019-05-17T06:46:32.458Z,13.44
2019-05-17T06:49:07.696Z,13.59
2019-05-17T06:51:42.843Z,13.65
2019-05-17T06:54:17.861Z,13.69
2019-05-17T06:56:52.955Z,13.76
2019-05-17T06:59:28.057Z,13.63
2019-05-17T07:02:03.089Z,13.88
2019-05-17T07:04:39.490Z,14.03
2019-05-17T07:07:26.855Z,13.90
2019-05-17T07:10:02.500Z,13.98
2019-05-17T07:12:51.096Z,13.89
2019-05-17T07:15:14.525Z,13.78
2019-05-17T07:17:50.578Z,13.67
2019-05-17T07:20:26.640Z,13.59
2019-05-17T07:23:01.736Z,13.66
2019-05-17T07:25:36.727Z,13.79
2019-05-17T07:28:11.732Z,14.09
2019-05-17T07:30:46.984Z,14.35
2019-05-17T07:33:22.075Z,14.64
2019-05-17T07:35:59.370Z,14.75
2019-05-17T07:38:34.537Z,14.86
2019-05-17T07:41:10.193Z,15.19
2019-05-17T07:43:46.469Z,14.93
2019-05-17T07:46:21.654Z,14.83
2019-05-17T07:49:00.200Z,15.06
2019-05-17T07:51:34.344Z,15.01
2019-05-17T07:54:10.430Z,14.83
2019-05-17T07:56:45.706Z,14.76
2019-05-17T07:59:20.785Z,14.61
2019-05-17T08:01:55.912Z,14.73
2019-05-17T08:04:31.300Z,14.99
2019-05-17T08:07:06.553Z,15.11
2019-05-17T08:09:41.536Z,15.06
2019-05-17T08:12:16.916Z,15.12
2019-05-17T08:14:53.008Z,15.14
2019-05-17T08:17:30.259Z,15.05
2019-05-17T08:20:05.668Z,15.21
2019-05-17T08:22:40.873Z,15.22
2019-05-17T08:25:20.569Z,15.26
2019-05-17T08:27:55.538Z,15.38
2019-05-17T08:30:30.614Z,15.34
2019-05-17T08:33:05.664Z,15.39
2019-05-17T08:35:40.776Z,15.39
2019-05-17T08:38:15.833Z,15.41
2019-05-17T08:40:51.150Z,15.23
2019-05-17T08:43:39.861Z,15.09
2019-05-17T08:46:04.024Z,15.14
2019-05-17T08:48:40.147Z,15.06
2019-05-17T08:51:15.369Z,14.93
2019-05-17T08:53:50.525Z,14.74
2019-05-17T08:56:25.575Z,14.70
2019-05-17T08:59:00.909Z,14.64
2019-05-17T09:01:38.447Z,14.94
2019-05-17T09:04:13.624Z,15.43
2019-05-17T09:06:50.468Z,15.87
2019-05-17T09:09:26.671Z,16.58
2019-05-17T09:12:02.032Z,16.76
2019-05-17T09:14:37.015Z,16.75
2019-05-17T09:17:12.190Z,17.09
2019-05-17T09:19:47.227Z,17.56
2019-05-17T09:22:22.271Z,18.08
2019-05-17T09:24:59.471Z,18.05
2019-05-17T09:27:34.009Z,18.06
2019-05-17T09:30:10.965Z,17.69
2019-05-17T09:32:46.192Z,17.09
2019-05-17T09:35:21.268Z,16.86
2019-05-17T09:37:56.368Z,16.43
2019-05-17T09:40:31.353Z,16.41
2019-05-17T09:43:06.578Z,16.65
2019-05-17T09:45:41.710Z,17.00
2019-05-17T09:48:19.470Z,17.17
2019-05-17T09:50:53.593Z,17.84
2019-05-17T09:53:30.755Z,18.35
2019-05-17T09:56:05.505Z,17.98
2019-05-17T09:58:40.627Z,17.77
2019-05-17T10:01:15.824Z,17.49
2019-05-17T10:03:50.931Z,17.28
2019-05-17T10:06:25.937Z,17.05
2019-05-17T10:09:00.886Z,16.68
2019-05-17T10:11:41.015Z,16.80
2019-05-17T10:14:27.478Z,17.09
2019-05-17T10:16:52.798Z,17.80
2019-05-17T10:19:29.445Z,17.82
2019-05-17T10:22:04.857Z,17.88
2019-05-17T10:24:42.424Z,17.63
2019-05-17T10:27:19.497Z,17.51
2019-05-17T10:29:54.224Z,17.65
2019-05-17T10:32:30.934Z,17.81
2019-05-17T10:35:07.041Z,17.96
2019-05-17T10:37:42.133Z,17.83
2019-05-17T10:40:17.537Z,17.93
2019-05-17T10:42:52.553Z,17.79
2019-05-17T10:45:27.506Z,17.87
2019-05-17T10:48:02.519Z,18.04
2019-05-17T10:50:40.668Z,18.09
2019-05-17T10:53:15.587Z,18.21
2019-05-17T10:55:50.671Z,18.06
2019-05-17T10:58:25.651Z,17.87
2019-05-17T11:01:00.989Z,18.08
2019-05-17T11:03:39.718Z,17.71
2019-05-17T11:06:14.642Z,17.45
2019-05-17T11:08:50.238Z,17.21
2019-05-17T11:11:25.321Z,17.04
2019-05-17T11:14:00.315Z,16.94
2019-05-17T11:16:35.387Z,17.00
2019-05-17T11:19:10.490Z,16.96
2019-05-17T11:21:45.519Z,17.30
2019-05-17T11:24:21.316Z,17.23
2019-05-17T11:26:56.296Z,17.31
2019-05-17T11:29:31.415Z,17.04
2019-05-17T11:32:06.457Z,16.88
2019-05-17T11:34:41.443Z,16.68
2019-05-17T11:37:16.642Z,16.66
2019-05-17T11:39:51.670Z,16.45
2019-05-17T11:42:26.796Z,16.37
2019-05-17T11:45:01.833Z,16.41
2019-05-17T11:47:36.962Z,16.62
2019-05-17T11:50:12.303Z,16.82
2019-05-17T11:52:47.618Z,17.09
2019-05-17T11:55:22.588Z,17.31
2019-05-17T11:57:57.672Z,17.70
2019-05-17T12:00:33.379Z,18.17
2019-05-17T12:03:08.587Z,18.74
2019-05-17T12:05:43.674Z,19.14
2019-05-17T12:08:18.779Z,19.03
2019-05-17T12:10:53.923Z,18.80
2019-05-17T12:13:29.651Z,18.52
2019-05-17T12:16:04.853Z,18.09
2019-05-17T12:18:39.985Z,17.98
2019-05-17T12:21:15.087Z,17.81
2019-05-17T12:23:50.125Z,17.62
2019-05-17T12:26:25.188Z,17.49
2019-05-17T12:29:01.209Z,17.52
2019-05-17T12:31:36.359Z,17.84
2019-05-17T12:34:11.408Z,18.01
2019-05-17T12:36:46.418Z,18.08
2019-05-17T12:39:21.541Z,18.40
2019-05-17T12:41:56.623Z,18.35
2019-05-17T12:44:31.887Z,18.40
2019-05-17T12:47:07.824Z,18.26
2019-05-17T12:49:43.049Z,18.19
2019-05-17T12:52:18.244Z,18.08
2019-05-17T12:54:53.276Z,17.87
2019-05-17T12:57:29.084Z,18.00
2019-05-17T13:00:04.188Z,18.14
2019-05-17T13:02:39.159Z,18.23
2019-05-17T13:05:14.322Z,18.12
2019-05-17T13:07:49.413Z,18.28
2019-05-17T13:10:24.555Z,17.72
2019-05-17T13:12:59.537Z,17.75
2019-05-17T13:15:34.747Z,17.56
2019-05-17T13:18:09.894Z,17.43
2019-05-17T13:20:44.935Z,17.47
2019-05-17T13:23:19.953Z,17.70
2019-05-17T13:25:55.241Z,17.98
2019-05-17T13:28:30.318Z,18.08
2019-05-17T13:31:05.354Z,18.12
2019-05-17T13:33:40.373Z,18.01
2019-05-17T13:36:15.420Z,17.80
2019-05-17T13:38:50.466Z,17.52
2019-05-17T13:41:25.561Z,17.35
2019-05-17T13:44:00.652Z,17.05
2019-05-17T13:46:35.698Z,16.83
2019-05-17T13:49:10.899Z,16.66
2019-05-17T13:51:46.096Z,16.57
2019-05-17T13:54:21.207Z,16.47
2019-05-17T13:56:56.321Z,16.66
2019-05-17T13:59:31.451Z,16.67
2019-05-17T14:02:06.519Z,16.58
2019-05-17T14:04:41.600Z,16.71
2019-05-17T14:07:16.648Z,16.82
2019-05-17T14:09:52.832Z,16.96
2019-05-17T14:12:28.021Z,17.20
2019-05-17T14:15:03.130Z,17.48
2019-05-17T14:17:38.194Z,17.75
2019-05-17T14:20:13.547Z,17.95
2019-05-17T14:22:48.604Z,17.92
2019-05-17T14:25:24.864Z,17.93
2019-05-17T14:27:59.905Z,18.04
2019-05-17T14:30:35.238Z,18.00
2019-05-17T14:33:10.419Z,18.06
2019-05-17T14:35:45.553Z,17.80
2019-05-17T14:38:20.571Z,17.56
2019-05-17T14:41:11.217Z,17.39
2019-05-17T14:43:32.487Z,17.24
2019-05-17T14:46:08.638Z,17.26
2019-05-17T14:48:43.721Z,17.33
2019-05-17T14:51:18.719Z,17.08
2019-05-17T14:53:53.777Z,17.15
2019-05-17T14:56:28.787Z,17.12
2019-05-17T14:59:04.035Z,16.94
2019-05-17T15:01:39.009Z,16.88
2019-05-17T15:04:14.006Z,16.86
2019-05-17T15:06:49.059Z,16.76
2019-05-17T15:09:25.025Z,16.78
2019-05-17T15:12:00.057Z,16.97
2019-05-17T15:14:35.065Z,17.10
2019-05-17T15:17:10.137Z,17.27
2019-05-17T15:19:45.254Z,17.34
2019-05-17T15:22:20.431Z,17.43
2019-05-17T15:24:55.402Z,17.54
2019-05-17T15:27:30.545Z,17.64
2019-05-17T15:30:06.406Z,17.69
2019-05-17T15:32:41.405Z,17.80
2019-05-17T15:35:16.476Z,17.79
2019-05-17T15:37:52.463Z,17.82
2019-05-17T15:40:27.643Z,17.84
2019-05-17T15:43:02.861Z,17.70
2019-05-17T15:45:37.962Z,17.56
2019-05-17T15:48:13.245Z,17.47
2019-05-17T15:50:48.319Z,17.43
2019-05-17T15:53:23.469Z,17.21
2019-05-17T15:55:58.617Z,17.24
2019-05-17T15:58:33.580Z,17.26
2019-05-17T16:01:09.910Z,17.15
2019-05-17T16:03:45.922Z,17.15
2019-05-17T16:06:20.969Z,17.19
2019-05-17T16:08:56.164Z,17.08
2019-05-17T16:11:31.205Z,16.99
2019-05-17T16:14:06.368Z,16.98
2019-05-17T16:16:41.474Z,17.01
2019-05-17T16:19:17.506Z,17.02
2019-05-17T16:21:52.693Z,16.89
2019-05-17T16:24:27.705Z,16.85
2019-05-17T16:27:02.736Z,16.89
2019-05-17T16:29:37.716Z,16.83
2019-05-17T16:32:12.947Z,16.87
2019-05-17T16:34:49.002Z,16.91
2019-05-17T16:37:23.997Z,17.00
2019-05-17T16:39:59.084Z,16.93
2019-05-17T16:42:34.306Z,17.09
2019-05-17T16:45:11.602Z,16.97
2019-05-17T16:47:47.594Z,16.99
2019-05-17T16:50:22.588Z,17.09
2019-05-17T16:53:05.718Z,17.09
2019-05-17T16:55:34.366Z,17.27
2019-05-17T16:58:09.380Z,17.24
2019-05-17T17:00:46.294Z,17.23
2019-05-17T17:03:21.364Z,17.13
2019-05-17T17:05:56.454Z,17.10
2019-05-17T17:08:31.504Z,17.00
2019-05-17T17:11:08.207Z,16.96
2019-05-17T17:13:43.333Z,16.85
2019-05-17T17:16:18.331Z,16.88
2019-05-17T17:18:53.368Z,16.74
2019-05-17T17:21:28.400Z,16.73
2019-05-17T17:24:03.814Z,16.69
2019-05-17T17:26:38.806Z,16.72
2019-05-17T17:29:15.946Z,16.74
2019-05-17T17:31:51.138Z,16.73
2019-05-17T17:34:26.303Z,16.75
2019-05-17T17:37:01.305Z,16.64
2019-05-17T17:39:37.411Z,16.70
2019-05-17T17:42:12.713Z,16.69
2019-05-17T17:44:47.895Z,16.65
2019-05-17T17:47:22.860Z,16.58
2019-05-17T17:49:58.072Z,16.52
2019-05-17T17:52:35.012Z,16.49
2019-05-17T17:55:10.729Z,16.44
2019-05-17T17:57:45.799Z,16.43
2019-05-17T18:00:21.926Z,16.46
2019-05-17T18:02:56.986Z,16.37
2019-05-17T18:05:32.070Z,16.32
2019-05-17T18:08:07.839Z,16.23
2019-05-17T18:10:46.328Z,16.37
2019-05-17T18:13:19.798Z,16.28
2019-05-17T18:15:55.076Z,16.22
2019-05-17T18:18:30.065Z,16.20
2019-05-17T18:21:09.820Z,16.17
2019-05-17T18:23:44.994Z,16.12
2019-05-17T18:26:20.172Z,16.05
2019-05-17T18:28:55.383Z,16.02
2019-05-17T18:31:30.592Z,16.01
2019-05-17T18:34:05.949Z,15.99
2019-05-17T18:36:41.131Z,16.00
2019-05-17T18:39:16.438Z,16.03
2019-05-17T18:41:54.627Z,15.99
2019-05-17T18:44:28.580Z,15.97
2019-05-17T18:47:07.633Z,15.96
2019-05-17T18:49:43.055Z,16.05
2019-05-17T18:52:18.167Z,16.04
2019-05-17T18:54:53.363Z,16.08
2019-05-17T18:57:28.634Z,16.04
2019-05-17T19:00:04.481Z,16.02
2019-05-17T19:02:39.940Z,16.03
2019-05-17T19:05:17.333Z,15.99
2019-05-17T19:07:52.526Z,15.96
2019-05-17T19:10:27.826Z,15.89
2019-05-17T19:13:03.009Z,15.87
2019-05-17T19:15:38.104Z,15.83
2019-05-17T19:18:13.239Z,15.84
2019-05-17T19:20:48.547Z,15.82
2019-05-17T19:23:25.892Z,15.79
2019-05-17T19:26:00.748Z,15.70
2019-05-17T19:28:35.977Z,15.65
2019-05-17T19:31:11.220Z,15.64
2019-05-17T19:33:46.307Z,15.57
2019-05-17T19:36:21.602Z,15.58
2019-05-17T19:38:56.875Z,15.52
2019-05-17T19:41:32.456Z,15.50
2019-05-17T19:44:07.602Z,15.49
2019-05-17T19:46:43.512Z,15.55
2019-05-17T19:49:18.780Z,15.54
2019-05-17T19:51:54.059Z,15.47
2019-05-17T19:54:29.322Z,15.44
2019-05-17T19:57:04.522Z,15.41
2019-05-17T19:59:39.715Z,15.46
2019-05-17T20:02:15.256Z,15.40
2019-05-17T20:04:50.416Z,15.44
2019-05-17T20:07:25.452Z,15.38
2019-05-17T20:10:00.607Z,15.29
2019-05-17T20:12:35.836Z,15.35
2019-05-17T20:15:17.733Z,15.24
2019-05-17T20:17:48.876Z,15.22
2019-05-17T20:20:24.007Z,15.26
2019-05-17T20:22:59.506Z,15.20
2019-05-17T20:25:34.942Z,15.20
2019-05-17T20:28:09.967Z,15.22
2019-05-17T20:30:45.182Z,15.25
2019-05-17T20:33:21.364Z,15.24
2019-05-17T20:35:56.468Z,15.16
2019-05-17T20:38:31.463Z,15.09
2019-05-17T20:41:10.271Z,15.15
2019-05-17T20:43:45.314Z,15.07
2019-05-17T20:46:20.428Z,15.06
2019-05-17T20:48:55.596Z,15.08
2019-05-17T20:51:30.785Z,15.10
2019-05-17T20:54:05.807Z,15.04
2019-05-17T20:56:43.210Z,15.02
2019-05-17T20:59:18.231Z,15.01
2019-05-17T21:01:53.869Z,15.03
2019-05-17T21:04:28.866Z,14.97
2019-05-17T21:07:04.326Z,14.95
2019-05-17T21:09:40.205Z,14.84
2019-05-17T21:12:15.415Z,14.72
2019-05-17T21:14:50.514Z,14.72
2019-05-17T21:17:25.565Z,14.66
2019-05-17T21:20:00.627Z,14.62
2019-05-17T21:22:35.896Z,14.54
2019-05-17T21:25:11.283Z,14.55
2019-05-17T21:27:46.502Z,14.45
2019-05-17T21:30:21.706Z,14.30
2019-05-17T21:32:58.068Z,14.31
2019-05-17T21:35:33.457Z,14.19
2019-05-17T21:38:08.631Z,14.09
2019-05-17T21:40:43.646Z,14.09
2019-05-17T21:43:18.679Z,14.13
2019-05-17T21:46:03.651Z,13.96
2019-05-17T21:48:33.235Z,13.82
2019-05-17T21:51:08.234Z,13.75
2019-05-17T21:53:43.231Z,13.64
2019-05-17T21:56:18.247Z,13.66
2019-05-17T21:58:53.289Z,13.51
2019-05-17T22:01:31.047Z,13.50
2019-05-17T22:04:06.199Z,13.41
2019-05-17T22:06:41.209Z,13.35
2019-05-17T22:09:16.199Z,13.34
2019-05-17T22:11:54.064Z,13.33
2019-05-17T22:14:29.063Z,13.31
2019-05-17T22:17:04.088Z,13.22
2019-05-17T22:19:39.136Z,13.22
2019-05-17T22:22:14.197Z,13.13
2019-05-17T22:24:49.288Z,13.16
2019-05-17T22:27:24.281Z,13.16
2019-05-17T22:29:59.291Z,13.08
2019-05-17T22:32:34.328Z,13.04
2019-05-17T22:35:09.681Z,12.94
2019-05-17T22:37:44.773Z,12.93
2019-05-17T22:40:19.767Z,12.89
2019-05-17T22:42:54.798Z,12.83
2019-05-17T22:45:29.775Z,12.78
2019-05-17T22:48:04.920Z,12.75
2019-05-17T22:50:45.217Z,12.93
2019-05-17T22:53:20.292Z,12.83
2019-05-17T22:55:55.396Z,12.84
2019-05-17T22:58:30.470Z,12.91
2019-05-17T23:01:08.451Z,12.95
2019-05-17T23:03:43.448Z,12.94
2019-05-17T23:06:18.449Z,12.81
2019-05-17T23:08:54.248Z,12.79
2019-05-17T23:11:29.333Z,12.79
2019-05-17T23:14:04.522Z,12.83
2019-05-17T23:16:51.183Z,12.70
2019-05-17T23:19:16.261Z,12.70
2019-05-17T23:21:51.267Z,12.68
2019-05-17T23:24:26.320Z,12.68
2019-05-17T23:27:01.652Z,12.72
2019-05-17T23:29:36.657Z,12.61
2019-05-17T23:32:11.760Z,12.52
2019-05-17T23:34:46.877Z,12.51
2019-05-17T23:37:22.055Z,12.52
2019-05-17T23:39:57.075Z,12.41
2019-05-17T23:42:32.296Z,12.38
2019-05-17T23:45:08.081Z,12.26
2019-05-17T23:47:43.207Z,12.27
2019-05-17T23:50:18.221Z,12.21
2019-05-17T23:52:53.232Z,12.20
2019-05-17T23:55:28.339Z,12.13
2019-05-17T23:58:03.378Z,12.13
